createdAt,value
2018-08-10T00:01:04.556Z,99589.35
2018-08-10T00:04:03.965Z,99591.20
2018-08-10T00:07:02.027Z,99589.70
2018-08-10T00:10:00.031Z,99582.45
2018-08-10T00:12:58.461Z,99591.59
2018-08-10T00:15:56.609Z,99592.92
2018-08-10T00:18:54.483Z,99590.91
2018-08-10T00:21:52.740Z,99599.03
2018-08-10T00:24:53.031Z,99601.56
2018-08-10T00:27:51.072Z,99593.96
2018-08-10T00:30:49.403Z,99601.41
2018-08-10T00:33:47.601Z,99596.66
2018-08-10T00:36:45.764Z,99598.69
2018-08-10T00:39:44.969Z,99601.55
2018-08-10T00:42:43.384Z,99598.67
2018-08-10T00:45:42.309Z,99605.43
2018-08-10T00:48:41.537Z,99603.73
2018-08-10T00:51:39.586Z,99603.73
2018-08-10T00:54:37.767Z,99601.53
2018-08-10T00:57:36.990Z,99603.73
2018-08-10T01:00:38.355Z,99592.92
2018-08-10T01:03:37.004Z,99599.68
2018-08-10T01:06:35.125Z,99595.30
2018-08-10T01:09:33.920Z,99596.33
2018-08-10T01:12:32.669Z,99603.77
2018-08-10T01:15:32.641Z,99600.05
2018-08-10T01:18:31.724Z,99598.03
2018-08-10T01:21:30.889Z,99596.68
2018-08-10T01:24:28.948Z,99601.91
2018-08-10T01:27:32.889Z,99608.66
2018-08-10T01:30:32.031Z,99617.59
2018-08-10T01:33:31.130Z,99645.32
2018-08-10T01:36:29.188Z,99657.57
2018-08-10T01:39:30.201Z,99644.39
2018-08-10T01:42:28.597Z,99647.78
2018-08-10T01:45:27.038Z,99655.23
2018-08-10T01:48:25.025Z,99655.89
2018-08-10T01:51:23.407Z,99655.06
2018-08-10T01:54:21.936Z,99661.64
2018-08-10T01:57:21.220Z,99667.55
2018-08-10T02:00:21.259Z,99660.93
2018-08-10T02:03:20.499Z,99664.27
2018-08-10T02:06:18.669Z,99673.37
2018-08-10T02:09:17.861Z,99679.11
2018-08-10T02:12:16.337Z,99687.49
2018-08-10T02:15:14.499Z,99693.57
2018-08-10T02:18:15.013Z,99700.56
2018-08-10T02:21:13.266Z,99708.20
2018-08-10T02:24:11.344Z,99697.98
2018-08-10T02:27:09.805Z,99697.73
2018-08-10T02:30:09.320Z,99688.67
2018-08-10T02:33:07.572Z,99691.32
2018-08-10T02:36:05.541Z,99702.38
2018-08-10T02:39:03.776Z,99708.73
2018-08-10T02:42:01.937Z,99715.78
2018-08-10T02:45:00.411Z,99718.88
2018-08-10T02:47:59.722Z,99726.03
2018-08-10T02:50:57.975Z,99728.27
2018-08-10T02:53:56.850Z,99728.31
2018-08-10T02:56:56.356Z,99742.22
2018-08-10T02:59:55.515Z,99744.86
2018-08-10T03:02:54.707Z,99752.16
2018-08-10T03:05:53.058Z,99754.35
2018-08-10T03:08:51.249Z,99754.70
2018-08-10T03:11:50.738Z,99752.16
2018-08-10T03:14:49.761Z,99762.73
2018-08-10T03:17:47.788Z,99760.34
2018-08-10T03:20:45.936Z,99772.73
2018-08-10T03:23:45.409Z,99778.47
2018-08-10T03:26:43.926Z,99780.80
2018-08-10T03:29:43.399Z,99789.08
2018-08-10T03:32:41.741Z,99788.53
2018-08-10T03:35:39.897Z,99792.25
2018-08-10T03:38:38.328Z,99811.56
2018-08-10T03:41:36.544Z,99808.08
2018-08-10T03:44:34.821Z,99811.98
2018-08-10T03:47:37.363Z,99816.51
2018-08-10T03:50:35.339Z,99816.91
2018-08-10T03:53:33.597Z,99822.95
2018-08-10T03:56:31.770Z,99821.30
2018-08-10T03:59:29.722Z,99817.47
2018-08-10T04:02:27.991Z,99823.75
2018-08-10T04:05:26.033Z,99826.31
2018-08-10T04:08:24.197Z,99830.31
2018-08-10T04:11:22.516Z,99835.84
2018-08-10T04:14:20.549Z,99834.88
2018-08-10T04:17:24.294Z,99855.17
2018-08-10T04:20:22.060Z,99858.42
2018-08-10T04:23:21.655Z,99867.08
2018-08-10T04:26:22.432Z,99874.25
2018-08-10T04:29:20.848Z,99873.95
2018-08-10T04:32:19.332Z,99882.96
2018-08-10T04:35:18.518Z,99874.53
2018-08-10T04:38:16.553Z,99881.28
2018-08-10T04:41:14.839Z,99883.12
2018-08-10T04:44:13.375Z,99881.83
2018-08-10T04:47:11.558Z,99883.18
2018-08-10T04:50:09.929Z,99884.67
2018-08-10T04:53:08.200Z,99883.85
2018-08-10T04:56:06.373Z,99904.94
2018-08-10T04:59:04.529Z,99911.02
2018-08-10T05:02:02.788Z,99924.75
2018-08-10T05:05:00.855Z,99922.70
2018-08-10T05:13:27.358Z,99942.27
2018-08-10T05:16:25.565Z,99945.92
2018-08-10T05:19:23.802Z,99953.95
2018-08-10T05:22:22.064Z,99958.30
2018-08-10T05:25:20.037Z,99966.26
2018-08-10T05:28:18.600Z,99965.63
2018-08-10T05:31:18.007Z,99973.87
2018-08-10T05:34:16.158Z,99979.83
2018-08-10T05:37:14.604Z,99969.91
2018-08-10T05:40:12.736Z,99992.59
2018-08-10T05:43:11.155Z,99975.37
2018-08-10T05:46:09.096Z,99993.64
2018-08-10T05:49:07.173Z,99991.84
2018-08-10T05:52:04.933Z,99991.72
2018-08-10T05:55:03.195Z,99997.53
2018-08-10T05:58:01.555Z,99995.17
2018-08-10T06:00:59.731Z,100008.70
2018-08-10T06:03:58.321Z,100001.97
2018-08-10T06:06:56.000Z,100008.23
2018-08-10T06:09:54.328Z,100023.34
2018-08-10T06:12:52.545Z,100017.98
2018-08-10T06:15:50.485Z,100048.12
2018-08-10T06:18:48.608Z,100029.53
2018-08-10T06:21:46.973Z,100026.91
2018-08-10T06:24:45.548Z,100027.67
2018-08-10T06:27:43.832Z,100016.76
2018-08-10T06:30:42.874Z,100028.84
2018-08-10T06:33:41.793Z,100030.60
2018-08-10T06:36:41.256Z,100036.68
2018-08-10T06:39:39.525Z,100035.11
2018-08-10T06:42:37.745Z,100028.80
2018-08-10T06:45:36.343Z,100028.14
2018-08-10T06:48:34.222Z,100044.18
2018-08-10T06:51:32.337Z,100044.59
2018-08-10T06:54:30.720Z,100046.27
2018-08-10T06:57:28.594Z,100050.63
2018-08-10T07:00:26.611Z,100059.38
2018-08-10T07:03:24.825Z,100082.83
2018-08-10T07:06:22.866Z,100074.83
2018-08-10T07:09:22.058Z,100086.11
2018-08-10T07:12:20.233Z,100072.26
2018-08-10T07:15:18.490Z,100082.90
2018-08-10T07:18:16.519Z,100101.78
2018-08-10T07:24:36.221Z,100110.18
2018-08-10T07:27:34.669Z,100114.40
2018-08-10T07:30:33.046Z,100137.10
2018-08-10T07:33:31.252Z,100131.87
2018-08-10T07:36:29.473Z,100135.70
2018-08-10T07:39:30.115Z,100140.11
2018-08-10T07:42:28.461Z,100138.11
2018-08-10T07:45:28.049Z,100155.74
2018-08-10T07:48:26.513Z,100160.92
2018-08-10T07:51:28.203Z,100155.55
2018-08-10T07:54:27.449Z,100156.13
2018-08-10T07:57:25.713Z,100168.12
2018-08-10T08:00:23.931Z,100175.31
2018-08-10T08:03:23.294Z,100174.73
2018-08-10T08:06:22.240Z,100178.17
2018-08-10T08:09:22.363Z,100182.05
2018-08-10T08:12:22.238Z,100177.36
2018-08-10T08:15:21.225Z,100198.57
2018-08-10T08:18:20.427Z,100192.56
2018-08-10T08:21:24.430Z,100194.59
2018-08-10T08:24:23.612Z,100201.95
2018-08-10T08:27:23.005Z,100202.64
2018-08-10T08:30:23.187Z,100208.62
2018-08-10T08:33:21.565Z,100217.33
2018-08-10T08:36:19.722Z,100215.62
2018-08-10T08:41:30.516Z,100223.78
2018-08-10T08:46:16.525Z,100236.78
2018-08-10T08:49:14.486Z,100249.00
2018-08-10T08:52:13.151Z,100251.23
2018-08-10T08:55:36.097Z,100259.91
2018-08-10T08:58:35.098Z,100255.88
2018-08-10T09:01:33.545Z,100265.75
2018-08-10T09:05:10.288Z,100264.28
2018-08-10T09:08:08.656Z,100272.22
2018-08-10T09:11:08.045Z,100268.89
2018-08-10T09:15:16.073Z,100278.92
2018-08-10T09:18:14.170Z,100279.31
2018-08-10T09:21:12.424Z,100285.23
2018-08-10T09:24:10.597Z,100276.70
2018-08-10T09:27:10.174Z,100288.47
2018-08-10T09:30:09.259Z,100293.84
2018-08-10T09:33:07.710Z,100287.61
2018-08-10T09:36:07.197Z,100278.20
2018-08-10T09:39:05.181Z,100276.72
2018-08-10T09:42:03.748Z,100298.83
2018-08-10T09:45:02.643Z,100298.89
2018-08-10T09:48:01.221Z,100310.23
2018-08-10T09:51:00.709Z,100323.74
2018-08-10T09:53:59.245Z,100339.63
2018-08-10T09:56:57.287Z,100349.31
2018-08-10T09:59:56.036Z,100351.37
2018-08-10T10:03:01.045Z,100341.70
2018-08-10T10:06:00.311Z,100338.78
2018-08-10T10:08:59.377Z,100332.80
2018-08-10T10:11:57.753Z,100359.55
2018-08-10T10:14:57.123Z,100372.80
2018-08-10T10:17:56.128Z,100392.38
2018-08-10T10:20:57.608Z,100381.77
2018-08-10T10:23:55.911Z,100395.42
2018-08-10T10:26:55.116Z,100400.83
2018-08-10T10:29:53.076Z,100421.08
2018-08-10T10:32:51.833Z,100439.84
2018-08-10T10:35:50.622Z,100431.89
2018-08-10T10:38:48.885Z,100433.91
2018-08-10T10:41:47.226Z,100442.03
2018-08-10T10:44:45.048Z,100450.48
2018-08-10T10:47:43.083Z,100452.63
2018-08-10T10:50:41.639Z,100456.09
2018-08-10T10:53:39.812Z,100445.02
2018-08-10T10:56:39.040Z,100454.86
2018-08-10T10:59:37.177Z,100450.53
2018-08-10T11:02:35.223Z,100438.22
2018-08-10T11:05:33.375Z,100435.50
2018-08-10T11:08:31.508Z,100426.22
2018-08-10T11:11:29.810Z,100440.20
2018-08-10T11:14:28.454Z,100427.91
2018-08-10T11:17:26.468Z,100420.83
2018-08-10T11:20:26.634Z,100416.99
2018-08-10T11:23:31.570Z,100429.79
2018-08-10T11:26:29.606Z,100433.39
2018-08-10T11:29:27.673Z,100446.75
2018-08-10T11:32:26.031Z,100440.54
2018-08-10T11:35:23.840Z,100431.06
2018-08-10T11:38:21.955Z,100429.39
2018-08-10T11:41:20.890Z,100419.51
2018-08-10T11:44:18.904Z,100413.27
2018-08-10T11:47:17.172Z,100414.80
2018-08-10T11:50:15.413Z,100421.45
2018-08-10T11:53:13.281Z,100421.77
2018-08-10T11:56:12.462Z,100426.68
2018-08-10T11:59:11.661Z,100419.84
2018-08-10T12:02:10.307Z,100418.75
2018-08-10T12:05:08.396Z,100415.87
2018-08-10T12:08:06.829Z,100413.91
2018-08-10T12:11:04.803Z,100413.94
2018-08-10T12:14:03.187Z,100415.84
2018-08-10T12:17:01.640Z,100416.48
2018-08-10T12:19:59.904Z,100420.67
2018-08-10T12:22:58.018Z,100417.40
2018-08-10T12:25:56.148Z,100412.48
2018-08-10T12:28:55.408Z,100416.86
2018-08-10T12:31:53.683Z,100415.89
2018-08-10T12:34:52.982Z,100416.11
2018-08-10T12:37:51.131Z,100428.18
2018-08-10T12:40:49.236Z,100437.52
2018-08-10T12:43:48.331Z,100436.52
2018-08-10T12:46:47.152Z,100427.89
2018-08-10T12:49:44.784Z,100423.58
2018-08-10T12:52:43.357Z,100418.91
2018-08-10T12:55:41.662Z,100423.37
2018-08-10T12:58:40.310Z,100434.92
2018-08-10T13:01:39.003Z,100432.75
2018-08-10T13:04:37.567Z,100418.20
2018-08-10T13:07:35.952Z,100422.00
2018-08-10T13:10:35.374Z,100411.92
2018-08-10T13:13:35.831Z,100405.30
2018-08-10T13:16:33.726Z,100405.27
2018-08-10T13:19:32.169Z,100401.85
2018-08-10T13:22:30.636Z,100395.44
2018-08-10T13:25:30.034Z,100403.81
2018-08-10T13:28:28.997Z,100396.44
2018-08-10T13:31:27.554Z,100397.35
2018-08-10T13:34:26.585Z,100404.98
2018-08-10T13:37:24.911Z,100403.71
2018-08-10T13:40:23.133Z,100415.10
2018-08-10T13:43:21.244Z,100405.02
2018-08-10T13:46:21.028Z,100410.84
2018-08-10T13:49:20.752Z,100411.42
2018-08-10T13:52:19.320Z,100417.06
2018-08-10T13:55:17.989Z,100413.24
2018-08-10T13:58:16.665Z,100404.39
2018-08-10T14:01:15.329Z,100410.53
2018-08-10T14:04:13.711Z,100414.66
2018-08-10T14:07:12.615Z,100416.30
2018-08-10T14:10:11.452Z,100415.84
2018-08-10T14:13:10.009Z,100420.93
2018-08-10T14:16:08.791Z,100414.10
2018-08-10T14:19:07.366Z,100420.27
2018-08-10T14:22:06.580Z,100411.77
2018-08-10T14:25:04.633Z,100417.46
2018-08-10T14:28:03.780Z,100407.02
2018-08-10T14:31:02.180Z,100411.53
2018-08-10T14:34:01.438Z,100411.90
2018-08-10T14:36:59.711Z,100407.98
2018-08-10T14:39:57.689Z,100406.70
2018-08-10T14:42:55.956Z,100409.56
2018-08-10T14:45:54.317Z,100405.94
2018-08-10T14:48:52.949Z,100410.09
2018-08-10T14:51:52.312Z,100407.69
2018-08-10T14:54:50.537Z,100412.90
2018-08-10T14:57:50.734Z,100417.11
2018-08-10T15:00:48.988Z,100412.50
2018-08-10T15:03:47.167Z,100416.98
2018-08-10T15:06:46.368Z,100407.88
2018-08-10T15:09:45.355Z,100406.05
2018-08-10T15:12:43.628Z,100401.27
2018-08-10T15:15:41.579Z,100404.61
2018-08-10T15:18:39.904Z,100412.83
2018-08-10T15:21:39.311Z,100399.77
2018-08-10T15:24:38.000Z,100395.78
2018-08-10T15:27:36.269Z,100410.32
2018-08-10T15:30:37.766Z,100408.70
2018-08-10T15:33:36.147Z,100395.48
2018-08-10T15:36:34.740Z,100400.16
2018-08-10T15:39:33.083Z,100410.81
2018-08-10T15:42:31.420Z,100413.77
2018-08-10T15:45:30.971Z,100422.32
2018-08-10T15:48:29.435Z,100432.77
2018-08-10T15:51:28.314Z,100431.95
2018-08-10T15:54:26.403Z,100434.74
2018-08-10T15:57:25.829Z,100427.19
2018-08-10T16:00:27.296Z,100437.63
2018-08-10T16:03:25.593Z,100437.98
2018-08-10T16:06:23.834Z,100453.97
2018-08-10T16:09:23.228Z,100451.41
2018-08-10T16:12:21.261Z,100448.47
2018-08-10T16:15:24.249Z,100455.84
2018-08-10T16:18:23.352Z,100457.20
2018-08-10T16:21:21.724Z,100462.67
2018-08-10T16:24:20.168Z,100461.59
2018-08-10T16:27:19.413Z,100461.02
2018-08-10T16:30:19.564Z,100462.50
2018-08-10T16:33:17.627Z,100462.62
2018-08-10T16:36:15.905Z,100467.64
2018-08-10T16:39:14.555Z,100463.72
2018-08-10T16:42:13.284Z,100469.19
2018-08-10T16:45:11.709Z,100467.71
2018-08-10T16:48:09.876Z,100461.58
2018-08-10T16:51:08.336Z,100455.09
2018-08-10T16:54:06.093Z,100448.61
2018-08-10T16:57:04.550Z,100460.61
2018-08-10T17:00:02.517Z,100458.33
2018-08-10T17:03:00.696Z,100450.01
2018-08-10T17:05:58.650Z,100456.39
2018-08-10T17:08:56.933Z,100455.22
2018-08-10T17:11:56.666Z,100461.11
2018-08-10T17:14:55.172Z,100462.47
2018-08-10T17:17:54.473Z,100458.84
2018-08-10T17:20:52.820Z,100462.89
2018-08-10T17:26:40.965Z,100466.93
2018-08-10T17:29:39.239Z,100468.31
2018-08-10T17:32:37.389Z,100481.89
2018-08-10T17:35:36.745Z,100475.27
2018-08-10T17:38:35.813Z,100482.89
2018-08-10T17:41:34.128Z,100485.08
2018-08-10T17:44:33.783Z,100488.25
2018-08-10T17:47:31.766Z,100492.80
2018-08-10T17:50:32.397Z,100490.83
2018-08-10T17:53:30.888Z,100495.83
2018-08-10T17:56:29.655Z,100494.02
2018-08-10T17:59:28.198Z,100494.25
2018-08-10T18:02:27.053Z,100496.41
2018-08-10T18:05:26.610Z,100494.92
2018-08-10T18:08:25.380Z,100492.99
2018-08-10T18:11:24.206Z,100494.69
2018-08-10T18:14:28.828Z,100497.38
2018-08-10T18:17:28.240Z,100496.15
2018-08-10T18:20:29.382Z,100490.03
2018-08-10T18:23:27.645Z,100486.48
2018-08-10T18:26:26.226Z,100485.52
2018-08-10T18:29:25.725Z,100493.46
2018-08-10T18:32:24.625Z,100503.95
2018-08-10T18:35:23.990Z,100501.99
2018-08-10T18:38:23.294Z,100500.77
2018-08-10T18:41:21.616Z,100502.48
2018-08-10T18:44:19.897Z,100507.23
2018-08-10T18:47:18.172Z,100515.16
2018-08-10T18:50:18.595Z,100517.97
2018-08-10T18:53:17.535Z,100527.83
2018-08-10T18:56:16.037Z,100533.66
2018-08-10T18:59:13.975Z,100528.39
2018-08-10T19:02:12.746Z,100533.98
2018-08-10T19:05:10.730Z,100535.41
2018-08-10T19:08:08.677Z,100536.86
2018-08-10T19:11:08.239Z,100537.09
2018-08-10T19:14:06.329Z,100541.70
2018-08-10T19:17:04.300Z,100551.89
2018-08-10T19:20:02.938Z,100550.16
2018-08-10T19:23:01.462Z,100555.86
2018-08-10T19:25:59.890Z,100567.63
2018-08-10T19:28:58.348Z,100552.00
2018-08-10T19:31:56.838Z,100553.93
2018-08-10T19:34:55.529Z,100555.20
2018-08-10T19:37:53.688Z,100568.81
2018-08-10T19:40:51.625Z,100565.59
2018-08-10T19:43:50.824Z,100570.03
2018-08-10T19:46:49.135Z,100573.98
2018-08-10T19:49:47.740Z,100580.77
2018-08-10T19:52:47.335Z,100578.02
2018-08-10T19:55:45.217Z,100591.70
2018-08-10T19:58:44.089Z,100581.03
2018-08-10T20:01:42.769Z,100580.56
2018-08-10T20:04:41.149Z,100581.03
2018-08-10T20:07:38.969Z,100582.95
2018-08-10T20:10:38.450Z,100581.13
2018-08-10T20:13:37.149Z,100574.44
2018-08-10T20:16:35.536Z,100572.63
2018-08-10T20:19:33.698Z,100575.78
2018-08-10T20:22:36.286Z,100576.64
2018-08-10T20:25:34.240Z,100575.78
2018-08-10T20:28:35.437Z,100579.13
2018-08-10T20:31:34.481Z,100576.45
2018-08-10T20:34:34.418Z,100573.97
2018-08-10T20:37:33.982Z,100571.30
2018-08-10T20:40:34.096Z,100557.91
2018-08-10T20:43:33.358Z,100563.84
2018-08-10T20:46:31.316Z,100562.92
2018-08-10T20:49:29.515Z,100567.89
2018-08-10T20:52:27.676Z,100576.41
2018-08-10T20:55:26.554Z,100571.14
2018-08-10T20:58:25.736Z,100573.34
2018-08-10T21:01:24.174Z,100581.33
2018-08-10T21:04:22.131Z,100575.59
2018-08-10T21:07:20.262Z,100578.94
2018-08-10T21:10:20.428Z,100580.84
2018-08-10T21:13:18.490Z,100574.01
2018-08-10T21:16:16.943Z,100573.91
2018-08-10T21:19:16.264Z,100578.11
2018-08-10T21:22:14.316Z,100587.09
2018-08-10T21:25:13.686Z,100588.80
2018-08-10T21:28:13.125Z,100592.67
2018-08-10T21:31:11.508Z,100587.64
2018-08-10T21:34:10.720Z,100585.53
2018-08-10T21:37:08.928Z,100586.39
2018-08-10T21:40:07.046Z,100592.34
2018-08-10T21:43:06.579Z,100595.89
2018-08-10T21:46:05.969Z,100596.08
2018-08-10T21:49:05.127Z,100600.17
2018-08-10T21:52:03.094Z,100604.87
2018-08-10T21:55:01.273Z,100605.84
2018-08-10T21:57:59.356Z,100601.59
2018-08-10T22:01:05.666Z,100604.69
2018-08-10T22:04:03.841Z,100599.72
2018-08-10T22:07:02.027Z,100598.95
2018-08-10T22:10:00.074Z,100597.61
2018-08-10T22:12:58.239Z,100598.23
2018-08-10T22:16:02.823Z,100593.52
2018-08-10T22:19:06.912Z,100595.80
2018-08-10T22:22:06.049Z,100596.44
2018-08-10T22:25:04.156Z,100596.08
2018-08-10T22:28:02.626Z,100601.15
2018-08-10T22:31:00.492Z,100597.59
2018-08-10T22:33:59.060Z,100600.08
2018-08-10T22:36:57.432Z,100590.02
2018-08-10T22:39:56.530Z,100592.75
2018-08-10T22:42:55.085Z,100590.69
2018-08-10T22:45:53.393Z,100578.47
2018-08-10T22:48:51.624Z,100581.83
2018-08-10T22:51:51.244Z,100589.99
2018-08-10T22:54:49.820Z,100591.20
2018-08-10T22:57:49.066Z,100581.13
2018-08-10T23:00:49.080Z,100585.48
2018-08-10T23:03:47.842Z,100582.71
2018-08-10T23:06:46.965Z,100578.89
2018-08-10T23:09:45.777Z,100582.71
2018-08-10T23:12:44.010Z,100583.52
2018-08-10T23:15:42.133Z,100575.39
2018-08-10T23:18:40.364Z,100570.52
2018-08-10T23:21:38.780Z,100575.30
2018-08-10T23:24:36.925Z,100568.28
2018-08-10T23:27:36.325Z,100562.97
2018-08-10T23:30:34.630Z,100560.58
2018-08-10T23:33:33.337Z,100559.63
2018-08-10T23:36:32.676Z,100559.83
2018-08-10T23:39:32.226Z,100552.73
2018-08-10T23:42:30.204Z,100549.05
2018-08-10T23:45:29.600Z,100550.30
2018-08-10T23:48:27.529Z,100558.11
2018-08-10T23:51:25.743Z,100552.60
2018-08-10T23:54:23.951Z,100547.83
2018-08-10T23:57:23.861Z,100542.52
